Terminal Aerodrome Forecast
Issued by NWS

Home | Current Version | Previous Version | Text Only | Print | Product List | Glossary On
Versions: 1 2 3 4 5 6 7 8 9 10 11 12
000
FTUS42 TJSJ 301120
TAFJBQ
TAF
TJBQ 301120Z 3012/3112 00000KT P6SM FEW030 SCT070 SCT120
     FM301500 06008G15KT P6SM VCSH SCT025 BKN040 BKN090
      TEMPO 3017/3021 VRB10G20KT 3SM TSRA BKN020CB OVC040
     FM302300 VRB05KT P6SM SCT025 BKN070=

USA.gov is the U.S. government's official web portal to all federal, state and local government web resources and services.